Time;durP1;ratioP1;P1;durP2;ratioP2;P2;SDS_P1;SDS_P2;PMS_P1;PMS_P2;Temp;Humidity;BMP_temperature;BMP_pressure;BME280_temperature;BME280_humidity;BME280_pressure;Samples;Min_cycle;Max_cycle;Signal;HPM_P1;HPM_P2
2022/10/02 00:02:01;;;;;;;;;;;13.10;91.60;;;;;;5114567;28;19940;-90
2022/10/02 00:04:36;;;;;;;;;;;13.10;91.80;;;;;;5114502;28;19965;-90
2022/10/02 00:07:06;;;;;;;;;;;13.10;91.90;;;;;;5114388;28;19949;-90
2022/10/02 00:09:36;;;;;;;;;;;13.10;92.00;;;;;;5114483;28;19945;-90
2022/10/02 00:12:04;;;;;;;;;;;13.20;92.30;;;;;;5114475;28;19937;-91
2022/10/02 00:14:33;;;;;;;;;;;13.30;92.20;;;;;;5114443;27;20423;-90
2022/10/02 00:16:59;;;;;;;;;;;13.30;92.10;;;;;;5103769;27;19949;-90
2022/10/02 00:19:25;;;;;;;;;;;13.20;91.20;;;;;;5134754;27;19941;-90
2022/10/02 00:22:09;;;;;;;;;;;13.20;91.50;;;;;;5134722;27;19944;-90
2022/10/02 00:24:35;;;;;;;;;;;13.20;91.50;;;;;;5133988;27;20393;-91
2022/10/02 00:27:19;;;;;;;;;;;13.10;91.60;;;;;;5134715;27;19940;-91
2022/10/02 00:29:44;;;;;;;;;;;13.10;91.40;;;;;;5134676;27;19948;-90
2022/10/02 00:32:10;;;;;;;;;;;13.00;91.20;;;;;;5134635;27;19940;-90
2022/10/02 00:34:42;;;;;;;;;;;13.10;91.40;;;;;;5131381;27;20481;-90
2022/10/02 00:37:24;;;;;;;;;;;13.00;91.10;;;;;;5095779;28;19941;-90
2022/10/02 00:40:08;;;;;;;;;;;12.90;90.70;;;;;;5113961;28;19972;-90
2022/10/02 00:42:48;;;;;;;;;;;12.90;90.70;;;;;;5114111;27;19981;-91
2022/10/02 00:45:24;;;;;;;;;;;12.90;91.00;;;;;;5113855;28;19957;-90
2022/10/02 00:47:55;;;;;;;;;;;12.90;90.80;;;;;;5113833;28;19939;-90
2022/10/02 00:50:23;;;;;;;;;;;12.90;90.70;;;;;;5113749;28;19939;-90
2022/10/02 00:52:52;;;;;;;;;;;12.90;91.00;;;;;;5095561;28;20449;-90
2022/10/02 00:55:41;;;;;;;;;;;13.00;91.00;;;;;;5114166;28;19946;-90
2022/10/02 00:58:25;;;;;;;;;;;13.00;90.80;;;;;;5084542;28;20425;-90
2022/10/02 01:01:00;;;;;;;;;;;13.00;90.90;;;;;;5113756;28;19943;-90
2022/10/02 01:03:29;;;;;;;;;;;12.90;91.40;;;;;;5113486;28;20007;-90
2022/10/02 01:05:54;;;;;;;;;;;12.90;91.90;;;;;;5113544;28;20412;-90
2022/10/02 01:08:20;;;;;;;;;;;12.80;92.00;;;;;;5113902;28;19950;-90
2022/10/02 01:10:46;;;;;;;;;;;12.80;91.90;;;;;;5095687;28;20341;-90
2022/10/02 01:13:12;;;;;;;;;;;12.70;92.60;;;;;;5114130;28;20344;-90
2022/10/02 01:15:40;;;;;;;;;;;12.70;92.50;;;;;;5113434;28;19980;-90
2022/10/02 01:18:06;;;;;;;;;;;12.70;92.80;;;;;;5132932;28;19943;-90
2022/10/02 01:20:34;;;;;;;;;;;12.70;92.90;;;;;;5134133;28;19959;-90
2022/10/02 01:23:18;;;;;;;;;;;12.70;92.90;;;;;;5133895;28;19943;-90
2022/10/02 01:25:44;;;;;;;;;;;12.70;92.90;;;;;;5133928;28;19998;-90
2022/10/02 01:28:10;;;;;;;;;;;12.80;92.90;;;;;;5133968;28;20008;-90
2022/10/02 01:30:38;;;;;;;;;;;12.80;92.80;;;;;;5134030;28;19944;-90
2022/10/02 01:33:04;;;;;;;;;;;12.60;92.30;;;;;;5131063;28;19982;-90
2022/10/02 01:35:31;;;;;;;;;;;12.60;92.50;;;;;;5113380;28;19994;-90
2022/10/02 01:37:57;;;;;;;;;;;12.50;92.70;;;;;;5113306;28;19938;-90
2022/10/02 01:40:30;;;;;;;;;;;12.50;93.00;;;;;;5113402;28;19944;-90
2022/10/02 01:43:22;;;;;;;;;;;12.60;93.10;;;;;;5095402;28;19943;-90
2022/10/02 01:46:01;;;;;;;;;;;12.70;93.20;;;;;;5111266;28;20050;-90
2022/10/02 01:48:59;;;;;;;;;;;12.70;93.10;;;;;;5115407;28;19948;-90
2022/10/02 01:51:32;;;;;;;;;;;12.70;93.00;;;;;;5082411;28;19961;-90
2022/10/02 01:54:04;;;;;;;;;;;12.80;93.00;;;;;;5117010;28;19945;-90
2022/10/02 01:56:32;;;;;;;;;;;12.80;93.00;;;;;;5117051;28;19948;-90
2022/10/02 01:59:15;;;;;;;;;;;12.70;92.90;;;;;;5117074;28;19937;-90
2022/10/02 02:01:40;;;;;;;;;;;12.70;92.80;;;;;;5117086;28;19942;-90
2022/10/02 02:04:12;;;;;;;;;;;12.70;92.70;;;;;;5127457;27;19988;-91
2022/10/02 02:06:40;;;;;;;;;;;12.70;92.50;;;;;;5137513;27;19937;-90
2022/10/02 02:09:17;;;;;;;;;;;12.80;92.40;;;;;;5118996;27;19937;-90
2022/10/02 02:11:50;;;;;;;;;;;12.70;92.30;;;;;;5119019;27;19948;-90
2022/10/02 02:14:18;;;;;;;;;;;12.80;92.30;;;;;;5125050;27;20239;-90
2022/10/02 02:16:46;;;;;;;;;;;12.80;92.30;;;;;;5116482;28;20418;-90
2022/10/02 02:19:12;;;;;;;;;;;12.80;92.30;;;;;;5116648;28;20420;-90
2022/10/02 02:21:40;;;;;;;;;;;12.80;92.30;;;;;;5116618;28;19944;-90
2022/10/02 02:24:09;;;;;;;;;;;12.80;92.10;;;;;;5098334;28;19951;-90
2022/10/02 02:26:35;;;;;;;;;;;12.80;92.20;;;;;;5116560;28;19953;-90
2022/10/02 02:29:02;;;;;;;;;;;12.80;92.10;;;;;;5098455;28;19945;-90
2022/10/02 02:31:31;;;;;;;;;;;12.80;92.20;;;;;;5116338;28;19995;-90
2022/10/02 02:34:00;;;;;;;;;;;12.80;92.40;;;;;;5116673;27;19942;-90
2022/10/02 02:36:32;;;;;;;;;;;12.70;92.30;;;;;;5098032;28;20327;-90
2022/10/02 02:39:01;;;;;;;;;;;12.70;92.30;;;;;;5116317;28;19941;-90
2022/10/02 02:41:27;;;;;;;;;;;12.70;92.30;;;;;;5116147;28;19939;-90
2022/10/02 02:44:01;;;;;;;;;;;12.70;92.00;;;;;;5124173;27;19946;-90
2022/10/02 02:46:30;;;;;;;;;;;12.60;91.90;;;;;;5136779;27;19981;-90
2022/10/02 02:49:06;;;;;;;;;;;12.50;91.50;;;;;;5136756;27;19966;-90
2022/10/02 02:51:36;;;;;;;;;;;12.30;91.30;;;;;;5136488;27;19960;-90
2022/10/02 02:54:05;;;;;;;;;;;12.20;91.70;;;;;;5127192;27;20156;-90
2022/10/02 02:56:31;;;;;;;;;;;12.30;92.30;;;;;;5115921;27;19951;-90
2022/10/02 02:58:58;;;;;;;;;;;12.30;92.50;;;;;;5115862;28;19949;-90
2022/10/02 03:01:24;;;;;;;;;;;12.30;92.60;;;;;;5115896;28;19937;-90
2022/10/02 03:03:49;;;;;;;;;;;12.20;93.00;;;;;;5084522;28;20471;-90
2022/10/02 03:06:15;;;;;;;;;;;12.20;93.30;;;;;;5115719;28;19961;-90
2022/10/02 03:08:40;;;;;;;;;;;12.20;93.40;;;;;;5115775;28;19947;-90
2022/10/02 03:11:15;;;;;;;;;;;12.30;93.60;;;;;;5115679;28;20409;-90
2022/10/02 03:13:54;;;;;;;;;;;12.30;93.60;;;;;;5115588;28;19944;-90
2022/10/02 03:16:32;;;;;;;;;;;12.40;93.60;;;;;;5115393;28;19974;-90
2022/10/02 03:19:16;;;;;;;;;;;12.50;93.30;;;;;;5115511;28;19988;-90
2022/10/02 03:22:05;;;;;;;;;;;12.60;93.00;;;;;;5115479;28;19939;-90
2022/10/02 03:24:37;;;;;;;;;;;12.60;92.70;;;;;;5121614;27;19959;-90
2022/10/02 03:27:15;;;;;;;;;;;12.40;92.50;;;;;;5135955;27;19967;-90
2022/10/02 03:29:58;;;;;;;;;;;12.40;92.40;;;;;;5135826;27;19938;-90
2022/10/02 03:32:25;;;;;;;;;;;12.40;92.30;;;;;;5136087;27;19939;-90
2022/10/02 03:34:51;;;;;;;;;;;12.30;92.20;;;;;;5120469;27;19982;-90
2022/10/02 03:37:17;;;;;;;;;;;12.20;92.20;;;;;;5115130;28;19979;-90
2022/10/02 03:39:43;;;;;;;;;;;12.20;92.30;;;;;;5115157;28;20417;-90
2022/10/02 03:42:13;;;;;;;;;;;12.10;92.50;;;;;;5115048;28;19937;-90
2022/10/02 03:44:38;;;;;;;;;;;12.20;92.80;;;;;;5114914;28;19966;-90
2022/10/02 03:47:04;;;;;;;;;;;12.30;92.60;;;;;;5114893;28;19935;-90
2022/10/02 03:49:29;;;;;;;;;;;12.20;92.40;;;;;;5114944;28;19945;-90
2022/10/02 03:51:55;;;;;;;;;;;12.20;92.30;;;;;;5114710;28;20030;-90
2022/10/02 03:54:21;;;;;;;;;;;12.20;92.30;;;;;;5124735;27;20042;-90
2022/10/02 03:56:57;;;;;;;;;;;12.30;92.30;;;;;;5135239;27;19941;-90
2022/10/02 03:59:31;;;;;;;;;;;12.30;92.20;;;;;;5135274;27;19941;-90
2022/10/02 04:01:58;;;;;;;;;;;12.30;92.10;;;;;;5135312;27;19981;-90
2022/10/02 04:04:27;;;;;;;;;;;12.20;91.70;;;;;;5124362;27;20040;-90
2022/10/02 04:06:56;;;;;;;;;;;12.20;91.40;;;;;;5114583;28;19940;-90
2022/10/02 04:09:26;;;;;;;;;;;12.20;91.20;;;;;;5114569;28;20424;-90
2022/10/02 04:12:14;;;;;;;;;;;12.20;91.20;;;;;;5095709;28;20310;-90
2022/10/02 04:14:43;;;;;;;;;;;12.10;91.00;;;;;;5114633;27;19993;-90
2022/10/02 04:17:13;;;;;;;;;;;11.90;90.80;;;;;;5131225;27;19943;-90
2022/10/02 04:19:48;;;;;;;;;;;11.80;91.70;;;;;;5134891;27;19939;-90
2022/10/02 04:22:34;;;;;;;;;;;11.80;92.40;;;;;;5116577;27;19946;-90
2022/10/02 04:25:11;;;;;;;;;;;11.70;92.50;;;;;;5104291;27;19964;-90
2022/10/02 04:27:39;;;;;;;;;;;11.70;92.60;;;;;;5114233;28;19941;-89
2022/10/02 04:30:10;;;;;;;;;;;11.60;93.00;;;;;;5095985;28;19982;-90
2022/10/02 04:32:36;;;;;;;;;;;11.70;93.30;;;;;;5114145;28;19944;-90
2022/10/02 04:35:08;;;;;;;;;;;11.90;93.50;;;;;;5129573;27;20040;-90
2022/10/02 04:37:44;;;;;;;;;;;11.90;93.30;;;;;;5134635;27;19948;-91
2022/10/02 04:40:16;;;;;;;;;;;11.90;93.00;;;;;;5134538;27;19985;-90
2022/10/02 04:42:47;;;;;;;;;;;11.90;92.90;;;;;;5134504;27;19940;-90
2022/10/02 04:45:31;;;;;;;;;;;11.80;92.80;;;;;;5117630;27;19971;-90
2022/10/02 04:48:06;;;;;;;;;;;11.80;93.10;;;;;;5113974;28;19937;-90
2022/10/02 04:50:54;;;;;;;;;;;11.70;93.40;;;;;;5113996;28;19986;-90
2022/10/02 04:53:22;;;;;;;;;;;11.70;93.50;;;;;;5094000;28;19947;-91
2022/10/02 04:55:54;;;;;;;;;;;11.80;93.70;;;;;;5134347;27;20406;-90
2022/10/02 04:58:19;;;;;;;;;;;11.80;93.80;;;;;;5134330;27;19933;-90
2022/10/02 05:00:58;;;;;;;;;;;11.80;93.60;;;;;;5134279;27;19937;-90
2022/10/02 05:03:42;;;;;;;;;;;11.80;93.50;;;;;;5133463;27;19941;-90
2022/10/02 05:06:16;;;;;;;;;;;11.80;93.40;;;;;;5113634;28;19963;-90
2022/10/02 05:08:56;;;;;;;;;;;11.80;93.40;;;;;;5113660;28;19942;-90
2022/10/02 05:11:40;;;;;;;;;;;11.80;93.40;;;;;;5113650;28;19993;-90
2022/10/02 05:14:24;;;;;;;;;;;11.80;93.60;;;;;;5119946;28;19944;-90
2022/10/02 05:16:55;;;;;;;;;;;11.90;93.50;;;;;;5133225;28;19951;-90
2022/10/02 05:19:26;;;;;;;;;;;11.90;93.10;;;;;;5133230;28;19973;-90
2022/10/02 05:22:12;;;;;;;;;;;11.90;93.10;;;;;;5133188;27;19937;-90
2022/10/02 05:24:50;;;;;;;;;;;11.80;92.40;;;;;;5127041;28;20022;-90
2022/10/02 05:27:36;;;;;;;;;;;11.70;92.50;;;;;;5116163;28;19947;-90
2022/10/02 05:30:10;;;;;;;;;;;11.70;92.90;;;;;;5116301;28;19943;-90
2022/10/02 05:33:02;;;;;;;;;;;11.80;93.10;;;;;;5116139;28;19991;-90
2022/10/02 05:35:30;;;;;;;;;;;11.80;93.00;;;;;;5115903;28;19949;-90
2022/10/02 05:37:59;;;;;;;;;;;11.80;93.10;;;;;;5116152;28;19942;-90
2022/10/02 05:40:53;;;;;;;;;;;11.80;92.80;;;;;;5116061;28;19943;-90
2022/10/02 05:43:51;;;;;;;;;;;11.80;92.60;;;;;;5043715;28;19942;-91
2022/10/02 05:46:24;;;;;;;;;;;11.80;92.40;;;;;;5092335;28;19976;-90
2022/10/02 05:48:56;;;;;;;;;;;11.80;92.20;;;;;;5115926;28;20023;-90
2022/10/02 05:51:28;;;;;;;;;;;11.80;92.40;;;;;;5115761;28;19960;-90
2022/10/02 05:53:59;;;;;;;;;;;11.80;92.70;;;;;;5119250;28;19945;-90
2022/10/02 05:56:31;;;;;;;;;;;11.80;92.80;;;;;;5136338;28;19981;-90
2022/10/02 05:59:11;;;;;;;;;;;11.90;93.10;;;;;;5136319;28;20026;-90
2022/10/02 06:01:38;;;;;;;;;;;11.90;93.30;;;;;;5136309;28;20446;-90
2022/10/02 06:04:03;;;;;;;;;;;12.10;93.50;;;;;;5135927;28;20034;-91
2022/10/02 06:06:32;;;;;;;;;;;12.20;93.40;;;;;;5119362;28;20109;-90
2022/10/02 06:09:03;;;;;;;;;;;12.40;93.30;;;;;;5115658;28;19945;-90
2022/10/02 06:11:30;;;;;;;;;;;12.40;93.20;;;;;;5115619;28;19953;-90
2022/10/02 06:14:14;;;;;;;;;;;12.40;92.90;;;;;;5115528;28;19969;-90
2022/10/02 06:16:43;;;;;;;;;;;12.50;92.70;;;;;;5047217;28;1948090;-90
2022/10/02 06:19:22;;;;;;;;;;;12.60;92.70;;;;;;5116722;28;20317;-90
2022/10/02 06:21:50;;;;;;;;;;;12.70;92.50;;;;;;5116675;28;19938;-90
2022/10/02 06:24:19;;;;;;;;;;;12.90;92.30;;;;;;5116909;28;20024;-90
2022/10/02 06:26:48;;;;;;;;;;;13.00;91.90;;;;;;5126575;27;19946;-91
2022/10/02 06:29:39;;;;;;;;;;;13.10;91.70;;;;;;5136911;27;20034;-90
2022/10/02 06:32:20;;;;;;;;;;;13.20;91.70;;;;;;5105204;27;19939;-90
2022/10/02 06:34:45;;;;;;;;;;;13.30;91.80;;;;;;5136520;27;19952;-90
2022/10/02 06:37:17;;;;;;;;;;;13.50;91.70;;;;;;5136392;27;20032;-91
2022/10/02 06:39:45;;;;;;;;;;;13.60;91.40;;;;;;5136875;27;20032;-90
2022/10/02 06:42:15;;;;;;;;;;;13.60;91.10;;;;;;5136812;27;19937;-90
2022/10/02 06:44:49;;;;;;;;;;;13.70;90.50;;;;;;5136710;27;19968;-90
2022/10/02 06:47:27;;;;;;;;;;;13.80;90.40;;;;;;5122191;27;19944;-90
2022/10/02 06:50:11;;;;;;;;;;;13.90;90.40;;;;;;5116059;28;20276;-91
2022/10/02 06:52:53;;;;;;;;;;;13.90;90.30;;;;;;5115906;28;20006;-90
2022/10/02 06:55:39;;;;;;;;;;;14.00;90.20;;;;;;5116010;28;20026;-90
2022/10/02 06:58:22;;;;;;;;;;;14.10;90.10;;;;;;5116472;27;20020;-90
2022/10/02 07:01:10;;;;;;;;;;;14.10;90.10;;;;;;5115888;28;19999;-90
2022/10/02 07:03:54;;;;;;;;;;;14.10;90.10;;;;;;5115480;28;20036;-90
2022/10/02 07:06:43;;;;;;;;;;;14.20;90.00;;;;;;5115733;28;19957;-91
2022/10/02 07:09:12;;;;;;;;;;;14.20;89.90;;;;;;5109974;28;20083;-90
2022/10/02 07:12:12;;;;;;;;;;;14.30;89.80;;;;;;5116054;28;19965;-90
2022/10/02 07:14:50;;;;;;;;;;;14.30;89.70;;;;;;5080671;22;19954;-90
2022/10/02 07:17:21;;;;;;;;;;;14.30;89.80;;;;;;5095215;28;20051;-90
2022/10/02 07:19:56;;;;;;;;;;;14.30;90.00;;;;;;5095166;28;19937;-90
2022/10/02 07:22:28;;;;;;;;;;;14.30;90.20;;;;;;5095084;28;19980;-90
2022/10/02 07:25:12;;;;;;;;;;;14.30;90.40;;;;;;5094940;28;19968;-90
2022/10/02 07:27:49;;;;;;;;;;;14.40;90.70;;;;;;5094725;28;19938;-90
2022/10/02 07:30:16;;;;;;;;;;;14.40;90.90;;;;;;5095127;28;19980;-91
2022/10/02 07:32:47;;;;;;;;;;;14.50;91.10;;;;;;5094709;28;19963;-91
2022/10/02 07:35:32;;;;;;;;;;;14.60;91.20;;;;;;5094762;28;20430;-90
2022/10/02 07:38:15;;;;;;;;;;;14.80;91.20;;;;;;5094652;28;19982;-90
2022/10/02 07:40:47;;;;;;;;;;;14.90;91.10;;;;;;5094653;28;19946;-90
2022/10/02 07:43:31;;;;;;;;;;;15.10;91.00;;;;;;5094562;28;19960;-90
2022/10/02 07:46:15;;;;;;;;;;;15.20;90.80;;;;;;5087452;28;20051;-90
2022/10/02 07:48:56;;;;;;;;;;;15.40;90.80;;;;;;5094707;28;19943;-90
2022/10/02 07:54:24;;;;;;;;;;;15.70;89.90;;;;;;5074180;28;20408;-90
2022/10/02 07:56:51;;;;;;;;;;;15.80;89.40;;;;;;5073986;28;20037;-90
2022/10/02 07:59:17;;;;;;;;;;;15.90;88.70;;;;;;5073910;28;20309;-90
2022/10/02 08:01:44;;;;;;;;;;;16.00;88.60;;;;;;5074152;28;19951;-90
2022/10/02 08:04:12;;;;;;;;;;;16.10;88.80;;;;;;5074053;28;20025;-90
2022/10/02 08:06:38;;;;;;;;;;;16.10;88.30;;;;;;5073943;28;19968;-90
2022/10/02 08:09:11;;;;;;;;;;;16.10;88.10;;;;;;5073935;28;20346;-91
2022/10/02 08:11:43;;;;;;;;;;;16.20;88.40;;;;;;5073653;28;19991;-90
2022/10/02 08:14:14;;;;;;;;;;;16.20;88.30;;;;;;5073894;28;19989;-90
2022/10/02 08:16:53;;;;;;;;;;;16.30;87.40;;;;;;5073745;28;19999;-90
2022/10/02 08:19:23;;;;;;;;;;;16.40;87.00;;;;;;5054069;28;20001;-90
2022/10/02 08:21:54;;;;;;;;;;;16.60;87.00;;;;;;5053742;28;20037;-90
2022/10/02 08:24:25;;;;;;;;;;;16.80;85.70;;;;;;5057297;28;19948;-90
2022/10/02 08:26:50;;;;;;;;;;;16.90;86.10;;;;;;5072519;28;19958;-90
2022/10/02 08:29:18;;;;;;;;;;;17.00;85.50;;;;;;5073528;28;19944;-90
2022/10/02 08:31:44;;;;;;;;;;;17.10;85.70;;;;;;5073208;28;19948;-90
2022/10/02 08:34:17;;;;;;;;;;;17.10;84.60;;;;;;5073470;28;19947;-90
2022/10/02 08:37:00;;;;;;;;;;;17.20;83.60;;;;;;5073566;28;19968;-90
2022/10/02 08:39:25;;;;;;;;;;;17.30;82.50;;;;;;5073487;28;20246;-90
2022/10/02 08:41:57;;;;;;;;;;;17.40;82.50;;;;;;5073455;28;20204;-90
2022/10/02 08:44:41;;;;;;;;;;;17.60;81.20;;;;;;5073303;28;20024;-90
2022/10/02 08:47:27;;;;;;;;;;;17.60;78.90;;;;;;5073298;28;19990;-90
2022/10/02 08:50:18;;;;;;;;;;;17.80;78.40;;;;;;5071846;28;20397;-90
2022/10/02 08:53:22;;;;;;;;;;;17.80;77.40;;;;;;5073171;28;19992;-90
2022/10/02 08:56:11;;;;;;;;;;;17.90;76.60;;;;;;5011299;28;20032;-90
2022/10/02 08:58:56;;;;;;;;;;;18.10;76.60;;;;;;4994673;28;20364;-90
2022/10/02 09:01:37;;;;;;;;;;;18.20;77.20;;;;;;5057975;28;19942;-90
2022/10/02 09:04:22;;;;;;;;;;;18.30;76.50;;;;;;5073235;28;19999;-90
2022/10/02 09:06:47;;;;;;;;;;;18.50;75.90;;;;;;5073199;28;20236;-90
2022/10/02 09:09:33;;;;;;;;;;;18.60;75.60;;;;;;5072989;28;20222;-91
2022/10/02 09:12:19;;;;;;;;;;;18.70;75.60;;;;;;5072529;28;19936;-90
2022/10/02 09:14:49;;;;;;;;;;;18.90;77.20;;;;;;5072833;28;20352;-90
2022/10/02 09:17:18;;;;;;;;;;;19.00;74.90;;;;;;5072998;28;20382;-90
2022/10/02 09:20:02;;;;;;;;;;;19.10;74.40;;;;;;5072954;28;20474;-90
2022/10/02 09:23:02;;;;;;;;;;;19.30;75.70;;;;;;5072789;28;20490;-90
2022/10/02 09:25:31;;;;;;;;;;;19.40;75.50;;;;;;5010834;28;19962;-90
2022/10/02 09:28:16;;;;;;;;;;;19.50;73.50;;;;;;5060925;28;19942;-91
2022/10/02 09:30:51;;;;;;;;;;;19.60;73.60;;;;;;5072655;28;20292;-91
2022/10/02 09:33:22;;;;;;;;;;;19.60;74.80;;;;;;5072863;28;19942;-90
2022/10/02 09:36:06;;;;;;;;;;;19.70;75.20;;;;;;5072839;28;19998;-91
2022/10/02 09:38:37;;;;;;;;;;;19.70;73.90;;;;;;5072900;28;19992;-90
2022/10/02 09:41:23;;;;;;;;;;;19.80;73.00;;;;;;5072815;28;19935;-91
2022/10/02 09:44:07;;;;;;;;;;;19.80;72.30;;;;;;5073096;28;19945;-90
2022/10/02 09:46:33;;;;;;;;;;;19.90;71.50;;;;;;5072702;28;19959;-90
2022/10/02 09:49:18;;;;;;;;;;;19.90;72.10;;;;;;5072790;28;19942;-90
2022/10/02 09:52:03;;;;;;;;;;;19.90;72.70;;;;;;5072582;28;19959;-90
2022/10/02 09:54:29;;;;;;;;;;;20.00;71.60;;;;;;5072524;28;20406;-91
2022/10/02 09:57:15;;;;;;;;;;;20.00;70.10;;;;;;5072971;28;19960;-90
2022/10/02 09:59:59;;;;;;;;;;;20.10;70.80;;;;;;5072681;28;20008;-90
2022/10/02 10:03:00;;;;;;;;;;;20.20;70.50;;;;;;5072884;28;19939;-90
2022/10/02 10:05:26;;;;;;;;;;;20.30;70.90;;;;;;5010429;28;19980;-90
2022/10/02 10:08:10;;;;;;;;;;;20.30;70.10;;;;;;5059660;28;19943;-90
2022/10/02 10:10:44;;;;;;;;;;;20.40;69.50;;;;;;5076188;28;19948;-90
2022/10/02 10:13:22;;;;;;;;;;;20.50;69.00;;;;;;5075722;28;19942;-90
2022/10/02 10:16:06;;;;;;;;;;;20.50;69.60;;;;;;5075798;28;20666;-91
2022/10/02 10:18:55;;;;;;;;;;;20.50;68.80;;;;;;5076079;28;20402;-91
2022/10/02 10:21:36;;;;;;;;;;;20.60;69.00;;;;;;5076144;28;20005;-90
2022/10/02 10:24:02;;;;;;;;;;;20.70;69.90;;;;;;5075929;28;20303;-91
2022/10/02 10:26:33;;;;;;;;;;;20.90;70.10;;;;;;5075820;28;19989;-91
2022/10/02 10:29:14;;;;;;;;;;;21.00;69.20;;;;;;5075950;28;20412;-90
2022/10/02 10:31:42;;;;;;;;;;;21.20;69.00;;;;;;5075946;28;19936;-91
2022/10/02 10:34:11;;;;;;;;;;;21.30;68.10;;;;;;5075845;28;19940;-91
2022/10/02 10:40:02;;;;;;;;;;;21.50;66.80;;;;;;5075226;28;20055;-91
2022/10/02 10:42:48;;;;;;;;;;;21.50;66.50;;;;;;5075589;28;19988;-91
2022/10/02 10:45:16;;;;;;;;;;;21.60;65.20;;;;;;5075488;28;19988;-90
2022/10/02 10:47:42;;;;;;;;;;;21.70;63.40;;;;;;5075554;28;19974;-90
2022/10/02 10:50:26;;;;;;;;;;;21.80;62.70;;;;;;5074061;28;19984;-90
2022/10/02 10:53:12;;;;;;;;;;;21.80;63.60;;;;;;5075481;28;20362;-91
2022/10/02 10:55:57;;;;;;;;;;;21.90;62.60;;;;;;5075649;28;19992;-90
2022/10/02 10:58:35;;;;;;;;;;;22.00;62.50;;;;;;5075408;28;20440;-90
2022/10/02 11:01:01;;;;;;;;;;;22.20;62.10;;;;;;5075302;28;19968;-90
2022/10/02 11:03:45;;;;;;;;;;;22.30;60.50;;;;;;5075101;28;20039;-90
2022/10/02 11:06:21;;;;;;;;;;;22.50;61.90;;;;;;5075361;28;20002;-91
2022/10/02 11:08:59;;;;;;;;;;;22.80;60.80;;;;;;5075139;28;19939;-91
2022/10/02 11:11:31;;;;;;;;;;;22.90;59.80;;;;;;5075066;28;20029;-90
2022/10/02 11:14:04;;;;;;;;;;;23.00;60.10;;;;;;5074987;28;19943;-90
2022/10/02 11:16:29;;;;;;;;;;;23.00;60.30;;;;;;5074829;28;19994;-90
2022/10/02 11:19:10;;;;;;;;;;;23.20;60.90;;;;;;5075151;28;19939;-91
2022/10/02 11:21:47;;;;;;;;;;;23.40;57.90;;;;;;5073913;28;19948;-91
2022/10/02 11:24:25;;;;;;;;;;;23.70;58.10;;;;;;5073494;28;20422;-91
2022/10/02 11:27:15;;;;;;;;;;;23.80;56.60;;;;;;5074797;28;19952;-91
2022/10/02 11:29:50;;;;;;;;;;;24.00;56.20;;;;;;5074488;28;19945;-90
2022/10/02 11:32:35;;;;;;;;;;;24.20;55.40;;;;;;5074524;28;19951;-91
2022/10/02 11:35:13;;;;;;;;;;;24.30;54.80;;;;;;5074670;28;19942;-90
2022/10/02 11:37:51;;;;;;;;;;;24.30;54.30;;;;;;5074520;28;19982;-90
2022/10/02 11:40:33;;;;;;;;;;;24.60;54.00;;;;;;5074537;28;19987;-90
2022/10/02 11:43:10;;;;;;;;;;;24.90;53.20;;;;;;5074468;28;19983;-91
2022/10/02 11:45:45;;;;;;;;;;;25.20;53.00;;;;;;5074328;28;20313;-90
2022/10/02 11:48:42;;;;;;;;;;;25.60;51.70;;;;;;5074355;28;20312;-90
2022/10/02 11:51:28;;;;;;;;;;;25.80;50.80;;;;;;5040026;28;19959;-90
2022/10/02 11:54:03;;;;;;;;;;;25.90;52.00;;;;;;5073786;28;19995;-91
2022/10/02 11:56:35;;;;;;;;;;;26.00;51.80;;;;;;5074264;28;20418;-91
2022/10/02 11:59:05;;;;;;;;;;;26.10;51.80;;;;;;5073913;28;20001;-91
2022/10/02 12:01:44;;;;;;;;;;;26.10;51.00;;;;;;5074067;28;19946;-90
2022/10/02 12:04:21;;;;;;;;;;;25.90;51.70;;;;;;5072882;28;19935;-90
2022/10/02 12:07:00;;;;;;;;;;;26.20;52.80;;;;;;5074141;28;19940;-90
2022/10/02 12:09:45;;;;;;;;;;;26.00;49.70;;;;;;5073917;28;19935;-90
2022/10/02 12:12:13;;;;;;;;;;;26.30;51.10;;;;;;5073905;28;19947;-91
2022/10/02 12:14:53;;;;;;;;;;;26.70;51.10;;;;;;5073699;28;20004;-91
2022/10/02 12:17:18;;;;;;;;;;;26.50;51.60;;;;;;5073746;28;19988;-90
2022/10/02 12:26:57;;;;;;;;;;;26.20;52.20;;;;;;5073704;28;19942;-91
2022/10/02 12:28:49;;;;;;;;;;;27.90;48.60;;;;;;5073619;28;20312;-91
2022/10/02 12:31:23;;;;;;;;;;;28.70;45.30;;;;;;5073451;28;19949;-91
2022/10/02 12:34:12;;;;;;;;;;;28.70;44.30;;;;;;5073579;28;19936;-90
2022/10/02 12:36:44;;;;;;;;;;;27.80;45.10;;;;;;5073397;28;19946;-90
2022/10/02 12:39:28;;;;;;;;;;;27.40;46.00;;;;;;5073460;28;19938;-91
2022/10/02 12:41:57;;;;;;;;;;;27.00;45.70;;;;;;5073377;28;19938;-90
2022/10/02 12:44:56;;;;;;;;;;;26.80;47.60;;;;;;5073389;28;19942;-91
2022/10/02 12:47:22;;;;;;;;;;;27.60;48.70;;;;;;5073339;28;20009;-91
2022/10/02 12:50:06;;;;;;;;;;;27.70;45.50;;;;;;5073235;28;20366;-91
2022/10/02 12:52:49;;;;;;;;;;;27.50;46.40;;;;;;5073151;28;19956;-91
2022/10/02 12:55:37;;;;;;;;;;;27.20;45.80;;;;;;5073221;28;19959;-91
2022/10/02 12:58:06;;;;;;;;;;;27.00;48.10;;;;;;5073013;28;20314;-91
2022/10/02 13:00:38;;;;;;;;;;;26.60;51.40;;;;;;5073161;28;20317;-91
2022/10/02 13:03:20;;;;;;;;;;;26.10;51.60;;;;;;5073140;28;19939;-91
2022/10/02 13:05:54;;;;;;;;;;;25.70;53.90;;;;;;5073002;28;19962;-91
2022/10/02 13:08:25;;;;;;;;;;;25.20;55.00;;;;;;5073087;28;20399;-90
2022/10/02 13:11:08;;;;;;;;;;;25.00;55.30;;;;;;5073114;28;20301;-91
2022/10/02 13:13:42;;;;;;;;;;;24.80;57.10;;;;;;5073133;28;19936;-91
2022/10/02 13:16:14;;;;;;;;;;;24.60;55.80;;;;;;5072947;28;20015;-91
2022/10/02 13:18:42;;;;;;;;;;;24.20;56.50;;;;;;5073067;28;20450;-90
2022/10/02 13:21:11;;;;;;;;;;;24.10;56.60;;;;;;5072976;28;19939;-91
2022/10/02 13:23:44;;;;;;;;;;;24.00;55.40;;;;;;5072892;28;19941;-91
2022/10/02 13:26:28;;;;;;;;;;;24.20;56.20;;;;;;5072838;28;20009;-91
2022/10/02 13:29:14;;;;;;;;;;;25.00;55.70;;;;;;5072331;28;20423;-91
2022/10/02 13:31:43;;;;;;;;;;;25.80;54.10;;;;;;5072472;28;19988;-91
2022/10/02 13:34:25;;;;;;;;;;;26.70;51.40;;;;;;5072828;28;19999;-91
2022/10/02 13:36:50;;;;;;;;;;;28.00;48.70;;;;;;5072893;28;19941;-91
2022/10/02 13:39:19;;;;;;;;;;;29.90;41.50;;;;;;5072841;28;19941;-91
2022/10/02 13:41:53;;;;;;;;;;;31.10;40.10;;;;;;5072777;28;19945;-91
2022/10/02 13:44:45;;;;;;;;;;;32.40;35.70;;;;;;5074608;28;20389;-91
2022/10/02 13:47:11;;;;;;;;;;;33.30;34.20;;;;;;5076647;28;20352;-91
2022/10/02 13:49:55;;;;;;;;;;;33.80;33.20;;;;;;5076612;28;19938;-91
2022/10/02 13:52:39;;;;;;;;;;;33.30;34.10;;;;;;5076382;28;19966;-91
2022/10/02 13:55:25;;;;;;;;;;;32.60;36.30;;;;;;5076453;28;19944;-90
2022/10/02 13:57:53;;;;;;;;;;;31.30;37.70;;;;;;5076356;28;20068;-90
2022/10/02 14:00:42;;;;;;;;;;;31.00;37.50;;;;;;5076387;28;19944;-91
2022/10/02 14:03:27;;;;;;;;;;;31.20;37.90;;;;;;5067933;28;20426;-91
2022/10/02 14:06:11;;;;;;;;;;;31.60;37.60;;;;;;5076247;28;20094;-91
2022/10/02 14:08:37;;;;;;;;;;;32.20;36.30;;;;;;5076260;28;19935;-91
2022/10/02 14:11:14;;;;;;;;;;;33.10;35.60;;;;;;5076431;28;20457;-91
2022/10/02 14:13:47;;;;;;;;;;;33.70;34.70;;;;;;5076119;28;19953;-91
2022/10/02 14:16:42;;;;;;;;;;;33.20;36.40;;;;;;5076041;28;19977;-90
2022/10/02 14:19:13;;;;;;;;;;;33.20;33.90;;;;;;5062939;28;19944;-91
2022/10/02 14:21:42;;;;;;;;;;;33.10;35.30;;;;;;5075974;28;19941;-91
2022/10/02 14:24:58;;;;;;;;;;;33.00;36.00;;;;;;5075943;28;19936;-91
2022/10/02 14:27:26;;;;;;;;;;;32.20;36.20;;;;;;5075385;28;20292;-91
2022/10/02 14:29:52;;;;;;;;;;;30.80;39.30;;;;;;5075841;28;19947;-91
2022/10/02 14:32:33;;;;;;;;;;;30.70;38.50;;;;;;5075796;28;19945;-90
2022/10/02 14:35:08;;;;;;;;;;;29.90;40.10;;;;;;5075645;28;20310;-91
2022/10/02 14:37:46;;;;;;;;;;;29.90;39.70;;;;;;5075719;28;19942;-91
2022/10/02 14:40:13;;;;;;;;;;;29.80;40.80;;;;;;5075680;28;19949;-91
2022/10/02 14:42:59;;;;;;;;;;;30.10;40.30;;;;;;5075635;28;20034;-91
2022/10/02 14:45:44;;;;;;;;;;;30.40;40.10;;;;;;5075511;28;20023;-91
2022/10/02 14:48:10;;;;;;;;;;;30.60;40.20;;;;;;5075800;28;19947;-91
2022/10/02 14:50:45;;;;;;;;;;;30.70;40.40;;;;;;5075270;28;19989;-91
2022/10/02 14:53:28;;;;;;;;;;;31.00;40.30;;;;;;5075462;28;20384;-91
2022/10/02 14:55:57;;;;;;;;;;;31.30;39.60;;;;;;5074923;28;20011;-91
2022/10/02 14:58:29;;;;;;;;;;;31.20;38.40;;;;;;5074891;28;19947;-91
2022/10/02 15:01:09;;;;;;;;;;;31.50;37.80;;;;;;5073911;28;20325;-91
2022/10/02 15:03:35;;;;;;;;;;;31.20;38.30;;;;;;5075282;28;19941;-91
2022/10/02 15:06:20;;;;;;;;;;;31.50;37.60;;;;;;5075072;28;19961;-91
2022/10/02 15:08:53;;;;;;;;;;;31.00;39.20;;;;;;5073838;28;19988;-91
2022/10/02 15:11:34;;;;;;;;;;;30.20;39.70;;;;;;5075089;28;20430;-91
2022/10/02 15:14:08;;;;;;;;;;;30.10;39.30;;;;;;5075041;28;19966;-91
2022/10/02 15:19:50;;;;;;;;;;;30.40;39.10;;;;;;5055253;28;19945;-91